Lenox, Georgia
Current Conditions -  °F | °C
As of 7:50 AM on Friday 31 Oct 2014 (Local Time) from KTMA Reporting Station
Clear Clear  
Wind Chill: 46°   Ceiling: Unl
Heat Index: 46°   Visibility: 10mi
Dew Point: 44°   Wind: 0mph
Humidity: 92%   Direction: NA
Pressure: 29.93"   Gusts: NA
Location:  31.27°N, 83.46°W
Report Text: KTMA 311150Z AUTO 00000KT 10SM CLR 08/07 A2993 RMK AO2 T00770065 10302 20077
Loading
Personal Weather Stations






























Interactive Weather Map
Tropical Storm Tracking
New forecast layout! Learn more

10-Day Weather Forecast

Advertisements
Track Severe Weather on mobile